sensor_id;sensor_type;location;lat;lon;timestamp;P1;durP1;ratioP1;P2;durP2;ratioP2
31764;SDS011;18338;53.240;8.798;2024-01-30T00:00:03;14.23;;;11.98;;
31764;SDS011;18338;53.240;8.798;2024-01-30T00:02:31;14.32;;;11.70;;
31764;SDS011;18338;53.240;8.798;2024-01-30T00:04:58;14.98;;;11.93;;
31764;SDS011;18338;53.240;8.798;2024-01-30T00:07:25;15.15;;;12.30;;
31764;SDS011;18338;53.240;8.798;2024-01-30T00:09:52;16.77;;;12.82;;
31764;SDS011;18338;53.240;8.798;2024-01-30T00:12:18;14.02;;;12.30;;
31764;SDS011;18338;53.240;8.798;2024-01-30T00:14:45;14.60;;;12.95;;
31764;SDS011;18338;53.240;8.798;2024-01-30T00:17:12;15.07;;;12.75;;
31764;SDS011;18338;53.240;8.798;2024-01-30T00:19:39;16.30;;;12.23;;
31764;SDS011;18338;53.240;8.798;2024-01-30T00:22:06;14.43;;;12.32;;
31764;SDS011;18338;53.240;8.798;2024-01-30T00:24:33;13.90;;;12.43;;
31764;SDS011;18338;53.240;8.798;2024-01-30T00:27:00;14.27;;;12.65;;
31764;SDS011;18338;53.240;8.798;2024-01-30T00:29:27;15.45;;;11.98;;
31764;SDS011;18338;53.240;8.798;2024-01-30T00:31:57;15.68;;;12.40;;
31764;SDS011;18338;53.240;8.798;2024-01-30T00:34:23;16.38;;;12.75;;
31764;SDS011;18338;53.240;8.798;2024-01-30T00:36:50;15.48;;;12.85;;
31764;SDS011;18338;53.240;8.798;2024-01-30T00:39:17;15.77;;;12.70;;
31764;SDS011;18338;53.240;8.798;2024-01-30T00:41:45;14.35;;;12.20;;
31764;SDS011;18338;53.240;8.798;2024-01-30T00:44:12;13.98;;;12.38;;
31764;SDS011;18338;53.240;8.798;2024-01-30T00:46:39;15.15;;;13.00;;
31764;SDS011;18338;53.240;8.798;2024-01-30T00:49:06;16.50;;;12.48;;
31764;SDS011;18338;53.240;8.798;2024-01-30T00:51:33;14.32;;;12.82;;
31764;SDS011;18338;53.240;8.798;2024-01-30T00:53:59;13.50;;;12.10;;
31764;SDS011;18338;53.240;8.798;2024-01-30T00:56:26;14.88;;;12.20;;
31764;SDS011;18338;53.240;8.798;2024-01-30T00:58:53;15.30;;;12.20;;
31764;SDS011;18338;53.240;8.798;2024-01-30T01:01:20;13.27;;;11.85;;
31764;SDS011;18338;53.240;8.798;2024-01-30T01:03:47;15.23;;;11.95;;
31764;SDS011;18338;53.240;8.798;2024-01-30T01:06:15;16.58;;;12.38;;
31764;SDS011;18338;53.240;8.798;2024-01-30T01:08:41;13.80;;;12.30;;
31764;SDS011;18338;53.240;8.798;2024-01-30T01:11:08;14.85;;;11.90;;
31764;SDS011;18338;53.240;8.798;2024-01-30T01:13:35;14.05;;;11.27;;
31764;SDS011;18338;53.240;8.798;2024-01-30T01:16:02;14.30;;;12.10;;
31764;SDS011;18338;53.240;8.798;2024-01-30T01:18:30;13.43;;;11.68;;
31764;SDS011;18338;53.240;8.798;2024-01-30T01:20:56;13.25;;;11.32;;
31764;SDS011;18338;53.240;8.798;2024-01-30T01:23:23;13.35;;;10.95;;
31764;SDS011;18338;53.240;8.798;2024-01-30T01:25:50;13.20;;;11.18;;
31764;SDS011;18338;53.240;8.798;2024-01-30T01:28:16;13.93;;;11.10;;
31764;SDS011;18338;53.240;8.798;2024-01-30T01:30:43;14.75;;;11.43;;
31764;SDS011;18338;53.240;8.798;2024-01-30T01:33:10;12.07;;;10.88;;
31764;SDS011;18338;53.240;8.798;2024-01-30T01:35:40;14.57;;;10.73;;
31764;SDS011;18338;53.240;8.798;2024-01-30T01:38:07;12.90;;;10.68;;
31764;SDS011;18338;53.240;8.798;2024-01-30T01:40:33;12.73;;;10.82;;
31764;SDS011;18338;53.240;8.798;2024-01-30T01:43:02;13.25;;;10.68;;
31764;SDS011;18338;53.240;8.798;2024-01-30T01:45:30;11.57;;;10.20;;
31764;SDS011;18338;53.240;8.798;2024-01-30T01:47:57;10.82;;;9.73;;
31764;SDS011;18338;53.240;8.798;2024-01-30T01:50:24;11.63;;;10.43;;
31764;SDS011;18338;53.240;8.798;2024-01-30T01:52:51;12.95;;;10.45;;
31764;SDS011;18338;53.240;8.798;2024-01-30T01:55:19;14.00;;;9.95;;
31764;SDS011;18338;53.240;8.798;2024-01-30T01:57:52;12.20;;;10.70;;
31764;SDS011;18338;53.240;8.798;2024-01-30T02:00:19;11.25;;;9.85;;
31764;SDS011;18338;53.240;8.798;2024-01-30T02:02:46;12.07;;;10.88;;
31764;SDS011;18338;53.240;8.798;2024-01-30T02:05:14;12.85;;;10.20;;
31764;SDS011;18338;53.240;8.798;2024-01-30T02:07:42;12.50;;;10.15;;
31764;SDS011;18338;53.240;8.798;2024-01-30T02:10:10;11.27;;;10.07;;
31764;SDS011;18338;53.240;8.798;2024-01-30T02:12:37;12.23;;;10.70;;
31764;SDS011;18338;53.240;8.798;2024-01-30T02:15:04;14.88;;;10.60;;
31764;SDS011;18338;53.240;8.798;2024-01-30T02:17:31;13.52;;;10.95;;
31764;SDS011;18338;53.240;8.798;2024-01-30T02:19:59;12.87;;;11.23;;
31764;SDS011;18338;53.240;8.798;2024-01-30T02:22:26;14.70;;;11.43;;
31764;SDS011;18338;53.240;8.798;2024-01-30T02:24:53;12.63;;;10.55;;
31764;SDS011;18338;53.240;8.798;2024-01-30T02:27:19;13.43;;;10.83;;
31764;SDS011;18338;53.240;8.798;2024-01-30T02:29:46;13.57;;;11.20;;
31764;SDS011;18338;53.240;8.798;2024-01-30T02:32:13;13.07;;;11.40;;
31764;SDS011;18338;53.240;8.798;2024-01-30T02:34:39;14.13;;;11.77;;
31764;SDS011;18338;53.240;8.798;2024-01-30T02:37:06;15.87;;;11.77;;
31764;SDS011;18338;53.240;8.798;2024-01-30T02:39:33;15.20;;;12.07;;
31764;SDS011;18338;53.240;8.798;2024-01-30T02:42:00;13.40;;;11.00;;
31764;SDS011;18338;53.240;8.798;2024-01-30T02:44:26;13.77;;;11.60;;
31764;SDS011;18338;53.240;8.798;2024-01-30T02:46:53;15.37;;;11.60;;
31764;SDS011;18338;53.240;8.798;2024-01-30T02:49:21;12.63;;;11.23;;
31764;SDS011;18338;53.240;8.798;2024-01-30T02:51:48;15.13;;;12.17;;
31764;SDS011;18338;53.240;8.798;2024-01-30T02:54:15;14.80;;;12.37;;
31764;SDS011;18338;53.240;8.798;2024-01-30T02:56:42;13.15;;;11.75;;
31764;SDS011;18338;53.240;8.798;2024-01-30T02:59:09;14.67;;;12.63;;
31764;SDS011;18338;53.240;8.798;2024-01-30T03:01:42;14.83;;;12.83;;
31764;SDS011;18338;53.240;8.798;2024-01-30T03:04:13;15.33;;;12.70;;
31764;SDS011;18338;53.240;8.798;2024-01-30T03:06:44;14.00;;;12.27;;
31764;SDS011;18338;53.240;8.798;2024-01-30T03:09:12;16.13;;;12.07;;
31764;SDS011;18338;53.240;8.798;2024-01-30T03:11:39;16.50;;;13.30;;
31764;SDS011;18338;53.240;8.798;2024-01-30T03:14:06;15.60;;;12.80;;
31764;SDS011;18338;53.240;8.798;2024-01-30T03:16:34;13.93;;;12.23;;
31764;SDS011;18338;53.240;8.798;2024-01-30T03:19:00;15.57;;;12.83;;
31764;SDS011;18338;53.240;8.798;2024-01-30T03:21:29;16.97;;;13.60;;
31764;SDS011;18338;53.240;8.798;2024-01-30T03:23:55;16.60;;;14.07;;
31764;SDS011;18338;53.240;8.798;2024-01-30T03:26:22;18.30;;;13.33;;
31764;SDS011;18338;53.240;8.798;2024-01-30T03:28:49;14.80;;;12.60;;
31764;SDS011;18338;53.240;8.798;2024-01-30T03:31:16;19.42;;;13.52;;
31764;SDS011;18338;53.240;8.798;2024-01-30T03:33:43;16.33;;;13.10;;
31764;SDS011;18338;53.240;8.798;2024-01-30T03:36:10;15.50;;;13.33;;
31764;SDS011;18338;53.240;8.798;2024-01-30T03:38:37;16.10;;;13.70;;
31764;SDS011;18338;53.240;8.798;2024-01-30T03:41:13;19.40;;;13.93;;
31764;SDS011;18338;53.240;8.798;2024-01-30T03:43:49;17.13;;;14.23;;
31764;SDS011;18338;53.240;8.798;2024-01-30T03:46:16;15.77;;;13.87;;
31764;SDS011;18338;53.240;8.798;2024-01-30T03:48:44;16.60;;;14.05;;
31764;SDS011;18338;53.240;8.798;2024-01-30T03:51:12;19.70;;;14.68;;
31764;SDS011;18338;53.240;8.798;2024-01-30T03:53:42;17.75;;;14.93;;
31764;SDS011;18338;53.240;8.798;2024-01-30T03:56:09;19.73;;;15.07;;
31764;SDS011;18338;53.240;8.798;2024-01-30T03:58:36;17.55;;;14.18;;
31764;SDS011;18338;53.240;8.798;2024-01-30T04:01:02;19.30;;;15.27;;
31764;SDS011;18338;53.240;8.798;2024-01-30T04:03:30;20.20;;;15.13;;
31764;SDS011;18338;53.240;8.798;2024-01-30T04:05:56;18.52;;;15.07;;
31764;SDS011;18338;53.240;8.798;2024-01-30T04:08:23;23.90;;;15.53;;
31764;SDS011;18338;53.240;8.798;2024-01-30T04:10:50;19.97;;;16.00;;
31764;SDS011;18338;53.240;8.798;2024-01-30T04:13:17;20.55;;;16.50;;
31764;SDS011;18338;53.240;8.798;2024-01-30T04:15:44;19.77;;;16.08;;
31764;SDS011;18338;53.240;8.798;2024-01-30T04:18:11;18.77;;;15.85;;
31764;SDS011;18338;53.240;8.798;2024-01-30T04:20:37;18.58;;;15.95;;
31764;SDS011;18338;53.240;8.798;2024-01-30T04:23:04;18.20;;;15.10;;
31764;SDS011;18338;53.240;8.798;2024-01-30T04:25:31;21.00;;;16.00;;
31764;SDS011;18338;53.240;8.798;2024-01-30T04:27:58;19.60;;;15.00;;
31764;SDS011;18338;53.240;8.798;2024-01-30T04:30:24;19.03;;;15.37;;
31764;SDS011;18338;53.240;8.798;2024-01-30T04:32:51;20.75;;;15.55;;
31764;SDS011;18338;53.240;8.798;2024-01-30T04:35:18;18.58;;;15.27;;
31764;SDS011;18338;53.240;8.798;2024-01-30T04:37:47;20.67;;;15.52;;
31764;SDS011;18338;53.240;8.798;2024-01-30T04:40:13;18.70;;;15.70;;
31764;SDS011;18338;53.240;8.798;2024-01-30T04:42:40;18.57;;;15.77;;
31764;SDS011;18338;53.240;8.798;2024-01-30T04:45:07;20.83;;;14.95;;
31764;SDS011;18338;53.240;8.798;2024-01-30T04:47:34;18.93;;;15.23;;
31764;SDS011;18338;53.240;8.798;2024-01-30T04:50:01;20.93;;;15.50;;
31764;SDS011;18338;53.240;8.798;2024-01-30T04:52:28;19.98;;;16.13;;
31764;SDS011;18338;53.240;8.798;2024-01-30T04:54:55;20.25;;;15.50;;
31764;SDS011;18338;53.240;8.798;2024-01-30T04:57:22;21.53;;;16.43;;
31764;SDS011;18338;53.240;8.798;2024-01-30T04:59:49;18.50;;;15.52;;
31764;SDS011;18338;53.240;8.798;2024-01-30T05:02:16;21.55;;;15.20;;
31764;SDS011;18338;53.240;8.798;2024-01-30T05:04:43;19.85;;;15.43;;
31764;SDS011;18338;53.240;8.798;2024-01-30T05:07:10;18.65;;;15.85;;
31764;SDS011;18338;53.240;8.798;2024-01-30T05:09:39;17.83;;;15.25;;
31764;SDS011;18338;53.240;8.798;2024-01-30T05:12:14;22.88;;;16.83;;
31764;SDS011;18338;53.240;8.798;2024-01-30T05:14:41;19.02;;;15.90;;
31764;SDS011;18338;53.240;8.798;2024-01-30T05:17:08;21.83;;;15.70;;
31764;SDS011;18338;53.240;8.798;2024-01-30T05:19:36;19.83;;;16.00;;
31764;SDS011;18338;53.240;8.798;2024-01-30T05:22:03;21.88;;;16.58;;
31764;SDS011;18338;53.240;8.798;2024-01-30T05:24:30;20.95;;;15.57;;
31764;SDS011;18338;53.240;8.798;2024-01-30T05:26:57;21.38;;;16.25;;
31764;SDS011;18338;53.240;8.798;2024-01-30T05:29:23;18.65;;;15.70;;
31764;SDS011;18338;53.240;8.798;2024-01-30T05:31:50;21.70;;;16.05;;
31764;SDS011;18338;53.240;8.798;2024-01-30T05:34:17;21.45;;;16.73;;
31764;SDS011;18338;53.240;8.798;2024-01-30T05:36:44;22.47;;;16.23;;
31764;SDS011;18338;53.240;8.798;2024-01-30T05:39:11;20.47;;;17.13;;
31764;SDS011;18338;53.240;8.798;2024-01-30T05:41:38;22.27;;;17.02;;
31764;SDS011;18338;53.240;8.798;2024-01-30T05:44:04;20.23;;;16.27;;
31764;SDS011;18338;53.240;8.798;2024-01-30T05:46:31;22.88;;;16.02;;
31764;SDS011;18338;53.240;8.798;2024-01-30T05:48:58;18.42;;;15.73;;
31764;SDS011;18338;53.240;8.798;2024-01-30T05:51:25;20.27;;;15.98;;
31764;SDS011;18338;53.240;8.798;2024-01-30T05:53:52;22.13;;;16.43;;
31764;SDS011;18338;53.240;8.798;2024-01-30T05:56:19;20.08;;;16.10;;
31764;SDS011;18338;53.240;8.798;2024-01-30T05:58:45;23.97;;;17.37;;
31764;SDS011;18338;53.240;8.798;2024-01-30T06:01:12;22.48;;;17.17;;
31764;SDS011;18338;53.240;8.798;2024-01-30T06:03:39;19.87;;;17.17;;
31764;SDS011;18338;53.240;8.798;2024-01-30T06:06:06;22.38;;;17.23;;
31764;SDS011;18338;53.240;8.798;2024-01-30T06:08:33;20.52;;;16.92;;
31764;SDS011;18338;53.240;8.798;2024-01-30T06:11:00;22.38;;;17.50;;
31764;SDS011;18338;53.240;8.798;2024-01-30T06:13:27;23.50;;;17.88;;
31764;SDS011;18338;53.240;8.798;2024-01-30T06:15:54;22.95;;;18.23;;
31764;SDS011;18338;53.240;8.798;2024-01-30T06:18:21;22.98;;;17.80;;
31764;SDS011;18338;53.240;8.798;2024-01-30T06:20:48;25.83;;;17.13;;
31764;SDS011;18338;53.240;8.798;2024-01-30T06:23:14;24.08;;;18.25;;
31764;SDS011;18338;53.240;8.798;2024-01-30T06:25:41;21.50;;;17.30;;
31764;SDS011;18338;53.240;8.798;2024-01-30T06:28:08;21.70;;;18.45;;
31764;SDS011;18338;53.240;8.798;2024-01-30T06:30:35;23.00;;;18.23;;
31764;SDS011;18338;53.240;8.798;2024-01-30T06:33:02;20.73;;;17.48;;
31764;SDS011;18338;53.240;8.798;2024-01-30T06:35:29;22.35;;;17.75;;
31764;SDS011;18338;53.240;8.798;2024-01-30T06:37:56;22.58;;;18.10;;
31764;SDS011;18338;53.240;8.798;2024-01-30T06:40:25;21.73;;;17.58;;
31764;SDS011;18338;53.240;8.798;2024-01-30T06:42:52;25.35;;;18.02;;
31764;SDS011;18338;53.240;8.798;2024-01-30T06:45:19;22.92;;;18.42;;
31764;SDS011;18338;53.240;8.798;2024-01-30T06:47:46;25.23;;;19.15;;
31764;SDS011;18338;53.240;8.798;2024-01-30T06:50:13;22.88;;;18.45;;
31764;SDS011;18338;53.240;8.798;2024-01-30T06:52:40;23.80;;;18.13;;
31764;SDS011;18338;53.240;8.798;2024-01-30T06:55:06;22.80;;;18.20;;
31764;SDS011;18338;53.240;8.798;2024-01-30T06:57:34;23.73;;;18.73;;
31764;SDS011;18338;53.240;8.798;2024-01-30T07:00:00;24.30;;;19.42;;
31764;SDS011;18338;53.240;8.798;2024-01-30T07:02:27;22.53;;;18.87;;
31764;SDS011;18338;53.240;8.798;2024-01-30T07:04:54;24.35;;;19.02;;
31764;SDS011;18338;53.240;8.798;2024-01-30T07:07:21;25.20;;;19.23;;
31764;SDS011;18338;53.240;8.798;2024-01-30T07:09:48;23.55;;;18.48;;
31764;SDS011;18338;53.240;8.798;2024-01-30T07:12:18;23.45;;;18.50;;
31764;SDS011;18338;53.240;8.798;2024-01-30T07:14:45;24.40;;;19.63;;
31764;SDS011;18338;53.240;8.798;2024-01-30T07:17:12;22.65;;;19.00;;
31764;SDS011;18338;53.240;8.798;2024-01-30T07:19:38;25.27;;;19.98;;
31764;SDS011;18338;53.240;8.798;2024-01-30T07:22:05;24.63;;;19.90;;
31764;SDS011;18338;53.240;8.798;2024-01-30T07:24:33;22.55;;;19.08;;
31764;SDS011;18338;53.240;8.798;2024-01-30T07:27:00;24.67;;;18.60;;
31764;SDS011;18338;53.240;8.798;2024-01-30T07:29:26;23.95;;;18.98;;
31764;SDS011;18338;53.240;8.798;2024-01-30T07:31:53;26.33;;;20.45;;
31764;SDS011;18338;53.240;8.798;2024-01-30T07:34:20;24.90;;;18.92;;
31764;SDS011;18338;53.240;8.798;2024-01-30T07:36:47;28.25;;;19.40;;
31764;SDS011;18338;53.240;8.798;2024-01-30T07:39:14;24.25;;;18.88;;
31764;SDS011;18338;53.240;8.798;2024-01-30T07:41:42;23.17;;;18.83;;
31764;SDS011;18338;53.240;8.798;2024-01-30T07:44:08;24.08;;;18.35;;
31764;SDS011;18338;53.240;8.798;2024-01-30T07:46:35;23.48;;;18.20;;
31764;SDS011;18338;53.240;8.798;2024-01-30T07:49:02;22.15;;;17.92;;
31764;SDS011;18338;53.240;8.798;2024-01-30T07:51:29;23.33;;;17.85;;
31764;SDS011;18338;53.240;8.798;2024-01-30T07:53:58;22.02;;;18.30;;
31764;SDS011;18338;53.240;8.798;2024-01-30T07:56:25;22.88;;;17.38;;
31764;SDS011;18338;53.240;8.798;2024-01-30T07:58:51;19.95;;;16.95;;
31764;SDS011;18338;53.240;8.798;2024-01-30T08:01:18;20.85;;;17.13;;
31764;SDS011;18338;53.240;8.798;2024-01-30T08:03:45;22.92;;;17.65;;
31764;SDS011;18338;53.240;8.798;2024-01-30T08:06:12;27.75;;;18.65;;
31764;SDS011;18338;53.240;8.798;2024-01-30T08:08:39;26.45;;;19.13;;
31764;SDS011;18338;53.240;8.798;2024-01-30T08:11:05;24.77;;;18.60;;
31764;SDS011;18338;53.240;8.798;2024-01-30T08:13:33;19.52;;;16.70;;
31764;SDS011;18338;53.240;8.798;2024-01-30T08:16:00;18.83;;;15.70;;
31764;SDS011;18338;53.240;8.798;2024-01-30T08:18:27;17.45;;;14.73;;
31764;SDS011;18338;53.240;8.798;2024-01-30T08:20:54;20.92;;;15.25;;
31764;SDS011;18338;53.240;8.798;2024-01-30T08:23:21;20.83;;;15.73;;
31764;SDS011;18338;53.240;8.798;2024-01-30T08:25:47;19.70;;;14.98;;
31764;SDS011;18338;53.240;8.798;2024-01-30T08:28:14;18.08;;;14.73;;
31764;SDS011;18338;53.240;8.798;2024-01-30T08:30:44;15.27;;;13.20;;
31764;SDS011;18338;53.240;8.798;2024-01-30T08:33:11;16.23;;;14.02;;
31764;SDS011;18338;53.240;8.798;2024-01-30T08:35:38;16.52;;;13.07;;
31764;SDS011;18338;53.240;8.798;2024-01-30T08:38:05;16.25;;;13.50;;
31764;SDS011;18338;53.240;8.798;2024-01-30T08:40:32;16.05;;;12.52;;
31764;SDS011;18338;53.240;8.798;2024-01-30T08:42:59;14.15;;;12.65;;
31764;SDS011;18338;53.240;8.798;2024-01-30T08:45:26;14.05;;;12.50;;
31764;SDS011;18338;53.240;8.798;2024-01-30T08:47:52;18.67;;;13.32;;
31764;SDS011;18338;53.240;8.798;2024-01-30T08:50:19;18.70;;;14.73;;
31764;SDS011;18338;53.240;8.798;2024-01-30T08:52:46;19.88;;;15.13;;
31764;SDS011;18338;53.240;8.798;2024-01-30T08:55:15;17.02;;;13.85;;
31764;SDS011;18338;53.240;8.798;2024-01-30T08:57:42;15.60;;;13.00;;
31764;SDS011;18338;53.240;8.798;2024-01-30T09:00:09;15.68;;;11.73;;
31764;SDS011;18338;53.240;8.798;2024-01-30T09:02:37;13.88;;;11.77;;
31764;SDS011;18338;53.240;8.798;2024-01-30T09:05:04;13.65;;;11.80;;
31764;SDS011;18338;53.240;8.798;2024-01-30T09:07:31;14.93;;;11.98;;
31764;SDS011;18338;53.240;8.798;2024-01-30T09:09:58;12.82;;;10.82;;
31764;SDS011;18338;53.240;8.798;2024-01-30T09:12:25;12.20;;;10.35;;
31764;SDS011;18338;53.240;8.798;2024-01-30T09:14:52;12.70;;;10.80;;
31764;SDS011;18338;53.240;8.798;2024-01-30T09:17:19;12.38;;;10.85;;
31764;SDS011;18338;53.240;8.798;2024-01-30T09:19:46;12.82;;;10.68;;
31764;SDS011;18338;53.240;8.798;2024-01-30T09:22:13;11.82;;;10.50;;
31764;SDS011;18338;53.240;8.798;2024-01-30T09:24:40;11.50;;;10.07;;
31764;SDS011;18338;53.240;8.798;2024-01-30T09:27:07;14.73;;;10.88;;
31764;SDS011;18338;53.240;8.798;2024-01-30T09:29:34;12.02;;;10.05;;
31764;SDS011;18338;53.240;8.798;2024-01-30T09:32:03;12.50;;;10.73;;
31764;SDS011;18338;53.240;8.798;2024-01-30T09:34:31;12.07;;;10.32;;
31764;SDS011;18338;53.240;8.798;2024-01-30T09:36:58;11.57;;;9.70;;
31764;SDS011;18338;53.240;8.798;2024-01-30T09:39:26;10.50;;;9.48;;
31764;SDS011;18338;53.240;8.798;2024-01-30T09:44:59;10.50;;;9.40;;
31764;SDS011;18338;53.240;8.798;2024-01-30T09:47:26;11.40;;;10.20;;
31764;SDS011;18338;53.240;8.798;2024-01-30T09:49:53;12.32;;;10.05;;
31764;SDS011;18338;53.240;8.798;2024-01-30T09:52:21;12.40;;;9.70;;
31764;SDS011;18338;53.240;8.798;2024-01-30T09:54:49;13.48;;;9.93;;
31764;SDS011;18338;53.240;8.798;2024-01-30T09:57:17;10.68;;;9.23;;
31764;SDS011;18338;53.240;8.798;2024-01-30T09:59:44;9.90;;;8.90;;
31764;SDS011;18338;53.240;8.798;2024-01-30T10:02:10;11.35;;;9.77;;
31764;SDS011;18338;53.240;8.798;2024-01-30T10:04:37;10.93;;;9.38;;
31764;SDS011;18338;53.240;8.798;2024-01-30T10:07:04;12.75;;;10.15;;
31764;SDS011;18338;53.240;8.798;2024-01-30T10:09:32;9.80;;;8.63;;
31764;SDS011;18338;53.240;8.798;2024-01-30T10:12:01;10.15;;;9.15;;
31764;SDS011;18338;53.240;8.798;2024-01-30T10:14:29;10.45;;;9.35;;
31764;SDS011;18338;53.240;8.798;2024-01-30T10:16:57;9.20;;;8.20;;
31764;SDS011;18338;53.240;8.798;2024-01-30T10:19:24;11.30;;;9.10;;
31764;SDS011;18338;53.240;8.798;2024-01-30T10:21:51;10.43;;;9.32;;
31764;SDS011;18338;53.240;8.798;2024-01-30T10:24:18;9.85;;;8.68;;
31764;SDS011;18338;53.240;8.798;2024-01-30T10:26:44;12.00;;;9.63;;
31764;SDS011;18338;53.240;8.798;2024-01-30T10:29:11;11.95;;;9.73;;
31764;SDS011;18338;53.240;8.798;2024-01-30T10:31:38;11.82;;;9.65;;
31764;SDS011;18338;53.240;8.798;2024-01-30T10:34:05;12.88;;;8.68;;
31764;SDS011;18338;53.240;8.798;2024-01-30T10:36:45;11.82;;;8.48;;
31764;SDS011;18338;53.240;8.798;2024-01-30T10:39:16;9.70;;;8.70;;
31764;SDS011;18338;53.240;8.798;2024-01-30T10:41:44;9.95;;;8.90;;
31764;SDS011;18338;53.240;8.798;2024-01-30T10:44:15;10.55;;;8.05;;
31764;SDS011;18338;53.240;8.798;2024-01-30T10:46:47;11.18;;;8.07;;
31764;SDS011;18338;53.240;8.798;2024-01-30T10:49:22;10.10;;;8.38;;
31764;SDS011;18338;53.240;8.798;2024-01-30T10:51:50;10.55;;;8.70;;
31764;SDS011;18338;53.240;8.798;2024-01-30T10:54:18;10.75;;;8.18;;
31764;SDS011;18338;53.240;8.798;2024-01-30T10:56:46;12.02;;;9.13;;
31764;SDS011;18338;53.240;8.798;2024-01-30T10:59:14;9.95;;;8.95;;
31764;SDS011;18338;53.240;8.798;2024-01-30T11:01:42;10.15;;;8.80;;
31764;SDS011;18338;53.240;8.798;2024-01-30T11:04:09;10.68;;;8.52;;
31764;SDS011;18338;53.240;8.798;2024-01-30T11:06:42;10.13;;;8.85;;
31764;SDS011;18338;53.240;8.798;2024-01-30T11:09:10;10.93;;;8.18;;
31764;SDS011;18338;53.240;8.798;2024-01-30T11:11:49;10.82;;;8.40;;
31764;SDS011;18338;53.240;8.798;2024-01-30T11:14:16;11.88;;;8.25;;
31764;SDS011;18338;53.240;8.798;2024-01-30T11:16:49;9.73;;;8.73;;
31764;SDS011;18338;53.240;8.798;2024-01-30T11:19:15;11.27;;;8.43;;
31764;SDS011;18338;53.240;8.798;2024-01-30T11:21:55;11.15;;;8.30;;
31764;SDS011;18338;53.240;8.798;2024-01-30T11:24:23;10.73;;;7.93;;
31764;SDS011;18338;53.240;8.798;2024-01-30T11:26:57;11.88;;;9.10;;
31764;SDS011;18338;53.240;8.798;2024-01-30T11:29:25;9.05;;;8.07;;
31764;SDS011;18338;53.240;8.798;2024-01-30T11:31:55;9.65;;;8.07;;
31764;SDS011;18338;53.240;8.798;2024-01-30T11:34:23;10.55;;;7.88;;
31764;SDS011;18338;53.240;8.798;2024-01-30T11:36:57;11.63;;;7.97;;
31764;SDS011;18338;53.240;8.798;2024-01-30T11:39:26;10.18;;;7.75;;
31764;SDS011;18338;53.240;8.798;2024-01-30T11:41:54;8.98;;;7.13;;
31764;SDS011;18338;53.240;8.798;2024-01-30T11:44:21;9.70;;;7.07;;
31764;SDS011;18338;53.240;8.798;2024-01-30T11:46:49;13.18;;;7.65;;
31764;SDS011;18338;53.240;8.798;2024-01-30T11:49:17;8.82;;;6.93;;
31764;SDS011;18338;53.240;8.798;2024-01-30T11:51:47;9.32;;;7.28;;
31764;SDS011;18338;53.240;8.798;2024-01-30T11:54:15;10.25;;;7.25;;
31764;SDS011;18338;53.240;8.798;2024-01-30T11:56:42;8.27;;;6.80;;
31764;SDS011;18338;53.240;8.798;2024-01-30T11:59:12;8.68;;;7.40;;
31764;SDS011;18338;53.240;8.798;2024-01-30T12:01:39;9.10;;;7.18;;
31764;SDS011;18338;53.240;8.798;2024-01-30T12:04:07;7.53;;;6.57;;
31764;SDS011;18338;53.240;8.798;2024-01-30T12:06:36;8.45;;;7.05;;
31764;SDS011;18338;53.240;8.798;2024-01-30T12:09:03;8.90;;;6.93;;
31764;SDS011;18338;53.240;8.798;2024-01-30T12:11:30;8.70;;;6.45;;
31764;SDS011;18338;53.240;8.798;2024-01-30T12:13:57;8.95;;;6.97;;
31764;SDS011;18338;53.240;8.798;2024-01-30T12:16:24;8.45;;;6.75;;
31764;SDS011;18338;53.240;8.798;2024-01-30T12:18:59;8.38;;;6.50;;
31764;SDS011;18338;53.240;8.798;2024-01-30T12:21:30;10.60;;;7.07;;
31764;SDS011;18338;53.240;8.798;2024-01-30T12:24:06;7.38;;;6.65;;
31764;SDS011;18338;53.240;8.798;2024-01-30T12:27:03;9.65;;;6.60;;
31764;SDS011;18338;53.240;8.798;2024-01-30T12:29:55;8.75;;;6.43;;
31764;SDS011;18338;53.240;8.798;2024-01-30T12:32:23;9.80;;;7.13;;
31764;SDS011;18338;53.240;8.798;2024-01-30T12:34:50;12.50;;;6.57;;
31764;SDS011;18338;53.240;8.798;2024-01-30T12:37:26;10.52;;;7.70;;
31764;SDS011;18338;53.240;8.798;2024-01-30T12:39:53;9.75;;;7.22;;
31764;SDS011;18338;53.240;8.798;2024-01-30T12:42:21;10.70;;;6.68;;
31764;SDS011;18338;53.240;8.798;2024-01-30T12:44:48;9.23;;;7.10;;
31764;SDS011;18338;53.240;8.798;2024-01-30T12:47:16;7.68;;;6.75;;
31764;SDS011;18338;53.240;8.798;2024-01-30T12:49:43;8.85;;;6.82;;
31764;SDS011;18338;53.240;8.798;2024-01-30T12:52:11;8.13;;;6.60;;
31764;SDS011;18338;53.240;8.798;2024-01-30T12:54:38;8.02;;;6.53;;
31764;SDS011;18338;53.240;8.798;2024-01-30T12:57:05;8.15;;;6.57;;
31764;SDS011;18338;53.240;8.798;2024-01-30T12:59:32;9.85;;;6.70;;
31764;SDS011;18338;53.240;8.798;2024-01-30T13:01:59;8.32;;;6.63;;
31764;SDS011;18338;53.240;8.798;2024-01-30T13:04:27;9.00;;;6.50;;
31764;SDS011;18338;53.240;8.798;2024-01-30T13:06:54;10.73;;;6.75;;
31764;SDS011;18338;53.240;8.798;2024-01-30T13:09:22;8.05;;;6.20;;
31764;SDS011;18338;53.240;8.798;2024-01-30T13:11:49;7.55;;;6.57;;
31764;SDS011;18338;53.240;8.798;2024-01-30T13:14:17;8.32;;;6.70;;
31764;SDS011;18338;53.240;8.798;2024-01-30T13:16:44;9.57;;;6.90;;
31764;SDS011;18338;53.240;8.798;2024-01-30T13:19:11;9.68;;;6.63;;
31764;SDS011;18338;53.240;8.798;2024-01-30T13:21:38;11.00;;;6.93;;
31764;SDS011;18338;53.240;8.798;2024-01-30T13:24:05;7.65;;;6.75;;
31764;SDS011;18338;53.240;8.798;2024-01-30T13:26:32;8.02;;;6.82;;
31764;SDS011;18338;53.240;8.798;2024-01-30T13:29:00;8.50;;;6.85;;
31764;SDS011;18338;53.240;8.798;2024-01-30T13:31:28;11.32;;;9.07;;
31764;SDS011;18338;53.240;8.798;2024-01-30T13:33:56;10.02;;;8.07;;
31764;SDS011;18338;53.240;8.798;2024-01-30T13:36:23;9.60;;;7.18;;
31764;SDS011;18338;53.240;8.798;2024-01-30T13:38:55;9.85;;;7.68;;
31764;SDS011;18338;53.240;8.798;2024-01-30T13:41:23;9.82;;;6.55;;
31764;SDS011;18338;53.240;8.798;2024-01-30T13:43:50;7.80;;;7.00;;
31764;SDS011;18338;53.240;8.798;2024-01-30T13:46:17;10.13;;;7.25;;
31764;SDS011;18338;53.240;8.798;2024-01-30T13:48:44;20.23;;;16.13;;
31764;SDS011;18338;53.240;8.798;2024-01-30T13:51:10;13.13;;;8.40;;
31764;SDS011;18338;53.240;8.798;2024-01-30T13:53:39;12.00;;;8.85;;
31764;SDS011;18338;53.240;8.798;2024-01-30T13:56:06;13.43;;;10.70;;
31764;SDS011;18338;53.240;8.798;2024-01-30T13:58:33;10.10;;;7.25;;
31764;SDS011;18338;53.240;8.798;2024-01-30T14:01:02;14.02;;;10.07;;
31764;SDS011;18338;53.240;8.798;2024-01-30T14:03:30;10.30;;;7.38;;
31764;SDS011;18338;53.240;8.798;2024-01-30T14:05:58;9.93;;;7.07;;
31764;SDS011;18338;53.240;8.798;2024-01-30T14:08:26;13.43;;;7.30;;
31764;SDS011;18338;53.240;8.798;2024-01-30T14:10:54;10.20;;;7.82;;
31764;SDS011;18338;53.240;8.798;2024-01-30T14:13:22;10.15;;;7.57;;
31764;SDS011;18338;53.240;8.798;2024-01-30T14:15:53;11.15;;;7.93;;
31764;SDS011;18338;53.240;8.798;2024-01-30T14:18:22;9.55;;;7.63;;
31764;SDS011;18338;53.240;8.798;2024-01-30T14:20:48;14.40;;;10.55;;
31764;SDS011;18338;53.240;8.798;2024-01-30T14:23:17;10.43;;;9.02;;
31764;SDS011;18338;53.240;8.798;2024-01-30T14:25:44;11.25;;;7.65;;
31764;SDS011;18338;53.240;8.798;2024-01-30T14:28:11;9.93;;;8.20;;
31764;SDS011;18338;53.240;8.798;2024-01-30T14:30:37;8.15;;;7.35;;
31764;SDS011;18338;53.240;8.798;2024-01-30T14:33:04;10.38;;;7.75;;